createdAt,value
2017-08-07T05:32:12.397Z,2820
2017-08-07T05:32:37.878Z,2832
2017-08-07T05:33:03.333Z,2832
2017-08-07T05:33:28.781Z,2856
2017-08-07T05:33:54.240Z,2868
2017-08-07T05:34:19.705Z,2856
2017-08-07T05:34:45.177Z,2864
2017-08-07T05:35:10.642Z,2880
2017-08-07T05:35:36.153Z,2912
2017-08-07T05:36:01.609Z,2932
2017-08-07T05:36:27.112Z,2940
2017-08-07T05:36:52.640Z,2936
2017-08-07T05:37:18.129Z,2944
2017-08-07T05:37:43.587Z,2944
2017-08-07T05:38:09.063Z,2932
2017-08-07T05:38:34.533Z,2920
2017-08-07T05:38:59.981Z,2940
2017-08-07T05:39:25.419Z,2976
2017-08-07T05:39:50.900Z,2996
2017-08-07T05:40:16.387Z,2992
2017-08-07T05:40:41.870Z,2964
2017-08-07T05:41:07.351Z,2960
2017-08-07T05:41:32.807Z,2984
2017-08-07T05:41:58.296Z,3048
2017-08-07T05:42:23.854Z,3064
2017-08-07T05:42:49.231Z,3084
2017-08-07T05:43:14.667Z,3116
2017-08-07T05:43:40.136Z,3136
2017-08-07T05:44:05.655Z,3164
2017-08-07T05:44:31.083Z,3208
2017-08-07T05:44:56.558Z,3232
2017-08-07T05:45:22.059Z,3240
2017-08-07T05:45:47.469Z,3264
2017-08-07T05:46:12.950Z,3268
2017-08-07T05:46:38.398Z,3268
2017-08-07T05:47:03.875Z,3288
2017-08-07T05:47:29.332Z,3308
2017-08-07T05:47:54.890Z,3324
2017-08-07T05:48:20.388Z,3348
2017-08-07T05:48:45.833Z,3320
2017-08-07T05:49:11.346Z,3232
2017-08-07T05:49:36.781Z,3220
2017-08-07T05:50:02.250Z,3168
2017-08-07T05:50:27.719Z,3152
2017-08-07T05:50:53.215Z,3196
2017-08-07T05:51:18.664Z,3240
2017-08-07T05:51:44.129Z,3300
2017-08-07T05:52:09.639Z,3308
2017-08-07T05:52:35.160Z,3312
2017-08-07T05:53:00.575Z,3356
2017-08-07T05:53:26.035Z,3264
2017-08-07T05:53:51.524Z,3244
2017-08-07T05:54:16.969Z,3332
2017-08-07T05:54:42.444Z,3488
2017-08-07T05:55:07.889Z,3552
2017-08-07T05:55:33.353Z,3548
2017-08-07T05:55:58.805Z,3544
2017-08-07T05:56:24.283Z,3620
2017-08-07T05:56:49.748Z,3624
2017-08-07T05:57:15.224Z,3588
2017-08-07T05:57:40.758Z,3480
2017-08-07T05:58:06.256Z,3572
2017-08-07T05:58:31.694Z,3528
2017-08-07T05:58:57.186Z,3644
2017-08-07T05:59:22.656Z,3688
2017-08-07T05:59:48.160Z,3732
2017-08-07T06:00:13.629Z,3780
2017-08-07T06:00:39.108Z,3860
2017-08-07T06:01:04.554Z,3896
2017-08-07T06:01:30.045Z,3952
2017-08-07T06:01:55.538Z,3988
2017-08-07T06:02:21.012Z,4068
2017-08-07T06:02:46.495Z,4164
2017-08-07T06:03:11.988Z,4248
2017-08-07T06:03:37.510Z,4344
2017-08-07T06:04:03.014Z,4448
2017-08-07T06:04:28.436Z,4592
2017-08-07T06:04:53.899Z,4740
2017-08-07T06:05:19.397Z,4920
2017-08-07T06:05:44.850Z,5092
2017-08-07T06:06:10.335Z,5348
2017-08-07T06:06:35.801Z,5540
2017-08-07T06:07:01.311Z,5944
2017-08-07T06:07:26.768Z,8128
2017-08-07T06:07:52.299Z,11700
2017-08-07T06:08:17.763Z,15808
2017-08-07T06:08:43.269Z,20032
2017-08-07T06:09:08.757Z,23904
2017-08-07T06:09:34.234Z,26720
2017-08-07T06:09:59.694Z,27552
2017-08-07T06:10:25.163Z,26432
2017-08-07T06:10:50.601Z,23104
2017-08-07T06:11:16.111Z,20448
2017-08-07T06:11:41.525Z,18464
2017-08-07T06:12:06.996Z,17312
2017-08-07T06:12:32.477Z,16576
2017-08-07T06:12:57.939Z,16352
2017-08-07T06:13:23.439Z,17216
2017-08-07T06:13:48.905Z,18816
2017-08-07T06:14:14.442Z,20256
2017-08-07T06:14:39.915Z,21248
2017-08-07T06:15:05.404Z,22240
2017-08-07T06:15:30.840Z,22016
2017-08-07T06:15:56.298Z,20736
2017-08-07T06:16:21.763Z,18080
2017-08-07T06:16:47.256Z,16064
2017-08-07T06:17:12.691Z,12264
2017-08-07T06:17:38.149Z,9160
2017-08-07T06:18:03.661Z,7088
2017-08-07T06:18:29.143Z,5636
2017-08-07T06:18:54.591Z,5196
2017-08-07T06:19:20.024Z,4960
2017-08-07T06:19:45.521Z,4816
2017-08-07T06:20:10.980Z,4716
2017-08-07T06:20:36.430Z,4644
2017-08-07T06:21:01.869Z,4596
2017-08-07T06:21:27.362Z,4560
2017-08-07T06:21:52.827Z,4544
2017-08-07T06:22:18.301Z,4512
2017-08-07T06:22:43.877Z,4456
2017-08-07T06:23:09.315Z,4480
2017-08-07T06:23:34.800Z,4500
2017-08-07T06:24:00.248Z,4508
2017-08-07T06:24:25.762Z,4520
2017-08-07T06:24:51.232Z,4512
2017-08-07T06:25:16.685Z,4472
2017-08-07T06:25:42.155Z,4464
2017-08-07T06:26:07.622Z,4484
2017-08-07T06:26:33.075Z,4516
2017-08-07T06:26:58.557Z,4552
2017-08-07T06:27:24.022Z,4608
2017-08-07T06:27:49.485Z,4624
2017-08-07T06:28:14.978Z,4684
2017-08-07T06:28:40.467Z,4736
2017-08-07T06:29:05.927Z,4736
2017-08-07T06:29:31.401Z,4712
2017-08-07T06:29:56.896Z,4700
2017-08-07T06:30:22.403Z,4668
2017-08-07T06:30:47.845Z,4660
2017-08-07T06:31:13.293Z,4644
2017-08-07T06:31:38.761Z,4612
2017-08-07T06:32:04.229Z,4612
2017-08-07T06:32:29.684Z,4580
2017-08-07T06:32:55.148Z,4576
2017-08-07T06:33:20.620Z,4528
2017-08-07T06:33:46.064Z,4536
2017-08-07T06:34:11.588Z,4532
2017-08-07T06:34:37.092Z,4556
2017-08-07T06:35:02.578Z,4504
2017-08-07T06:35:28.061Z,4468
2017-08-07T06:35:53.578Z,4440
2017-08-07T06:36:19.008Z,4468
2017-08-07T06:36:44.450Z,4472
2017-08-07T06:37:09.921Z,4452
2017-08-07T06:37:35.407Z,4416
2017-08-07T06:38:00.870Z,4376
2017-08-07T06:38:26.349Z,4420
2017-08-07T06:38:51.859Z,4452
2017-08-07T06:39:17.360Z,4476
2017-08-07T06:39:42.858Z,4484
2017-08-07T06:40:08.330Z,4512
2017-08-07T06:40:33.821Z,4508
2017-08-07T06:40:59.321Z,4468
2017-08-07T06:41:24.793Z,4440
2017-08-07T06:41:50.299Z,4324
2017-08-07T06:42:15.744Z,4264
2017-08-07T06:42:41.222Z,4108
2017-08-07T06:43:06.673Z,3908
2017-08-07T06:43:32.161Z,3952
2017-08-07T06:43:57.647Z,2728
2017-08-07T06:44:23.112Z,2544
2017-08-07T06:44:48.586Z,2488
2017-08-07T06:45:14.058Z,2428
2017-08-07T06:45:39.538Z,2424
2017-08-07T06:46:04.999Z,2460
2017-08-07T06:46:30.465Z,2828
2017-08-07T06:46:55.936Z,2648
2017-08-07T06:47:21.439Z,2608
2017-08-07T06:47:46.921Z,2792
2017-08-07T06:48:12.346Z,2928
2017-08-07T06:48:37.838Z,3072
2017-08-07T06:49:03.313Z,3252
2017-08-07T06:49:28.783Z,4476
2017-08-07T06:49:54.273Z,3584
2017-08-07T06:50:19.740Z,3660
2017-08-07T06:50:45.232Z,3588
2017-08-07T06:51:10.712Z,3620
2017-08-07T06:51:36.213Z,3680
2017-08-07T06:52:01.698Z,3744
2017-08-07T06:52:27.202Z,3892
2017-08-07T06:52:52.667Z,4076
2017-08-07T06:53:18.127Z,3988
2017-08-07T06:53:43.577Z,4044
2017-08-07T06:54:09.048Z,4028
2017-08-07T06:54:34.495Z,4104
2017-08-07T06:55:00.005Z,4176
2017-08-07T06:55:25.477Z,4220
2017-08-07T06:55:50.965Z,4280
2017-08-07T06:56:16.448Z,4576
2017-08-07T06:56:41.967Z,4684
2017-08-07T06:57:07.413Z,4800
2017-08-07T06:57:32.880Z,4792
2017-08-07T06:57:58.336Z,4732
2017-08-07T06:58:23.828Z,4880
2017-08-07T06:58:49.326Z,4924
2017-08-07T06:59:14.801Z,4724
2017-08-07T06:59:40.375Z,4712
2017-08-07T07:00:05.800Z,4744
2017-08-07T07:00:31.271Z,4732
2017-08-07T07:00:56.763Z,4632
2017-08-07T07:01:22.239Z,4592
2017-08-07T07:01:47.729Z,4516
2017-08-07T07:02:13.224Z,4604
2017-08-07T07:02:38.707Z,4676
2017-08-07T07:03:04.207Z,4736
2017-08-07T07:03:29.674Z,5008
2017-08-07T07:03:55.136Z,5304
2017-08-07T07:04:20.590Z,5288
2017-08-07T07:04:46.069Z,6228
2017-08-07T07:05:11.521Z,5248
2017-08-07T07:05:37.008Z,6500
2017-08-07T07:06:02.448Z,5040
2017-08-07T07:06:27.910Z,4932
2017-08-07T07:06:53.396Z,4976
2017-08-07T07:07:18.874Z,5092
2017-08-07T07:07:44.359Z,4832
2017-08-07T07:08:09.854Z,5200
2017-08-07T07:09:23.659Z,4396
2017-08-07T07:09:49.144Z,4308
2017-08-07T07:10:14.610Z,4292
2017-08-07T07:10:40.079Z,4152
2017-08-07T07:11:05.562Z,4568
2017-08-07T07:11:31.081Z,3976
2017-08-07T07:11:56.560Z,3944
2017-08-07T07:12:22.048Z,3916
2017-08-07T07:12:47.551Z,3960
2017-08-07T07:13:13.018Z,4792
2017-08-07T07:13:38.486Z,4056
2017-08-07T07:14:03.978Z,5788
2017-08-07T07:14:29.488Z,4572
2017-08-07T07:14:54.918Z,4576
2017-08-07T07:15:20.438Z,5060
2017-08-07T07:15:45.906Z,4960
2017-08-07T07:16:11.352Z,4816
2017-08-07T07:16:36.853Z,4712
2017-08-07T07:17:02.295Z,4604
2017-08-07T07:17:27.780Z,4568
2017-08-07T07:17:53.228Z,4528
2017-08-07T07:18:18.703Z,4488
2017-08-07T07:18:44.147Z,4528
2017-08-07T07:19:09.608Z,4572
2017-08-07T07:19:35.057Z,4540
2017-08-07T07:20:00.495Z,4512
2017-08-07T07:20:25.960Z,4480
2017-08-07T07:20:51.460Z,4416
2017-08-07T07:21:16.940Z,4416
2017-08-07T07:21:42.412Z,4380
2017-08-07T07:22:07.897Z,4340
2017-08-07T07:22:33.386Z,4288
2017-08-07T07:22:58.847Z,4244
2017-08-07T07:23:24.291Z,4196
2017-08-07T07:23:49.736Z,4124
2017-08-07T07:24:15.235Z,4100
2017-08-07T07:24:40.695Z,4068
2017-08-07T07:25:06.132Z,4052
2017-08-07T07:25:31.604Z,4040
2017-08-07T07:25:57.098Z,4032
2017-08-07T07:26:22.578Z,3988
2017-08-07T07:26:48.127Z,3972
2017-08-07T07:27:13.599Z,3956
2017-08-07T07:27:39.060Z,3932
2017-08-07T07:28:04.537Z,3864
2017-08-07T07:28:29.985Z,3984
2017-08-07T07:28:55.488Z,3968
2017-08-07T07:29:20.950Z,3988
2017-08-07T07:29:46.463Z,3996
2017-08-07T07:30:11.952Z,4004
2017-08-07T07:30:37.429Z,4000
2017-08-07T07:31:02.868Z,3988
2017-08-07T07:31:28.331Z,4008
2017-08-07T07:31:53.850Z,4016
2017-08-07T07:32:19.312Z,4008
2017-08-07T07:32:44.793Z,4016
2017-08-07T07:33:10.241Z,3980
2017-08-07T07:33:35.730Z,3352
2017-08-07T07:34:01.215Z,3984
2017-08-07T07:34:26.669Z,4000
2017-08-07T07:34:52.140Z,4040
2017-08-07T07:35:17.572Z,4220
2017-08-07T07:35:43.087Z,4336
2017-08-07T07:36:08.561Z,4420
2017-08-07T07:36:34.010Z,4612
2017-08-07T07:36:59.454Z,3736
2017-08-07T07:37:24.907Z,4656
2017-08-07T07:37:50.391Z,3024
2017-08-07T07:38:15.848Z,4396
2017-08-07T07:38:41.311Z,3464
2017-08-07T07:39:06.794Z,3212
2017-08-07T07:39:32.252Z,4548
2017-08-07T07:39:57.694Z,3688
2017-08-07T07:40:23.151Z,4812
2017-08-07T07:40:48.579Z,3920
2017-08-07T07:41:14.066Z,3548
2017-08-07T07:41:39.534Z,4072
2017-08-07T07:42:04.998Z,3852
2017-08-07T07:42:30.437Z,5612
2017-08-07T07:42:55.913Z,4880
2017-08-07T07:43:21.364Z,4444
2017-08-07T07:43:46.779Z,4592
2017-08-07T07:44:12.248Z,4704
2017-08-07T07:44:37.746Z,6072
2017-08-07T07:45:03.176Z,5992
2017-08-07T07:45:28.670Z,5212
2017-08-07T07:45:54.169Z,5032
2017-08-07T07:46:19.719Z,4976
2017-08-07T07:46:45.189Z,5344
2017-08-07T07:47:10.693Z,5212
2017-08-07T07:47:36.144Z,5040
2017-08-07T07:48:01.629Z,6152
2017-08-07T07:48:27.090Z,5896
2017-08-07T07:48:52.541Z,6224
2017-08-07T07:49:18.021Z,6624
2017-08-07T07:49:43.442Z,5792
2017-08-07T07:50:09.005Z,5600
2017-08-07T07:50:34.406Z,6084
2017-08-07T07:50:59.886Z,4904
2017-08-07T07:51:25.385Z,4860
2017-08-07T07:51:50.819Z,4820
2017-08-07T07:52:16.266Z,4744
2017-08-07T07:52:41.775Z,5248
2017-08-07T07:53:07.206Z,4840
2017-08-07T07:54:31.171Z,5472
2017-08-07T07:54:56.632Z,5852
2017-08-07T07:55:22.134Z,6176
2017-08-07T07:55:47.532Z,5780
2017-08-07T07:56:12.972Z,5624
2017-08-07T07:56:38.517Z,5652
2017-08-07T07:57:03.977Z,5736
2017-08-07T07:57:29.440Z,5720
2017-08-07T07:57:54.866Z,5648
2017-08-07T07:58:20.331Z,5668
2017-08-07T07:58:45.812Z,5468
2017-08-07T07:59:11.307Z,5684
2017-08-07T07:59:36.732Z,5496
2017-08-07T08:00:02.233Z,5684
2017-08-07T08:00:27.669Z,6108
2017-08-07T08:00:53.126Z,6276
2017-08-07T08:01:18.588Z,6344
2017-08-07T08:01:44.085Z,6320
2017-08-07T08:02:09.541Z,6208
2017-08-07T08:02:34.972Z,5968
2017-08-07T08:03:00.435Z,5728
2017-08-07T08:03:25.871Z,5464
2017-08-07T08:03:51.324Z,5200
2017-08-07T08:04:16.820Z,4888
2017-08-07T08:04:42.293Z,4652
2017-08-07T08:05:07.780Z,4428
2017-08-07T08:05:33.212Z,4240
2017-08-07T08:05:58.765Z,4096
2017-08-07T08:06:24.214Z,4004
2017-08-07T08:06:49.674Z,3948
2017-08-07T08:07:15.172Z,3924
2017-08-07T08:07:40.585Z,3920
2017-08-07T08:08:06.031Z,3928
2017-08-07T08:08:31.483Z,3948
2017-08-07T08:08:56.937Z,3948
2017-08-07T08:09:22.392Z,3940
2017-08-07T08:09:47.872Z,4040
2017-08-07T08:10:13.332Z,4020
2017-08-07T08:10:38.777Z,3948
2017-08-07T08:11:04.254Z,3952
2017-08-07T08:11:29.706Z,3960
2017-08-07T08:11:55.170Z,3948
2017-08-07T08:12:20.669Z,3964
2017-08-07T08:12:46.137Z,3936
2017-08-07T08:13:11.655Z,3880
2017-08-07T08:13:37.070Z,3836
2017-08-07T08:14:02.506Z,3784
2017-08-07T08:14:27.973Z,3744
2017-08-07T08:14:53.563Z,3688
2017-08-07T08:15:19.003Z,3644
2017-08-07T08:15:44.444Z,3600
2017-08-07T08:16:09.988Z,3564
2017-08-07T08:16:35.401Z,3516
2017-08-07T08:17:00.886Z,3532
2017-08-07T08:17:26.366Z,3476
2017-08-07T08:17:51.913Z,3508
2017-08-07T08:18:17.331Z,3500
2017-08-07T08:18:42.886Z,3496
2017-08-07T08:19:08.370Z,3480
2017-08-07T08:19:33.769Z,3472
2017-08-07T08:19:59.204Z,3464
2017-08-07T08:20:24.648Z,3428
2017-08-07T08:20:50.140Z,3404
2017-08-07T08:21:15.621Z,3416
2017-08-07T08:21:41.105Z,3384
2017-08-07T08:22:06.558Z,3392
2017-08-07T08:22:31.978Z,3392
2017-08-07T08:22:57.436Z,3372
2017-08-07T08:23:22.924Z,3368
2017-08-07T08:23:48.469Z,3364
2017-08-07T08:24:14.032Z,3368
2017-08-07T08:24:39.472Z,3372
2017-08-07T08:25:04.983Z,3376
2017-08-07T08:25:30.389Z,3380
2017-08-07T08:25:55.848Z,3364
2017-08-07T08:26:21.308Z,3376
2017-08-07T08:26:46.767Z,3372
2017-08-07T08:27:12.223Z,3372
2017-08-07T08:27:37.734Z,3364
2017-08-07T08:28:03.211Z,3356
2017-08-07T08:28:28.685Z,3336
2017-08-07T08:28:54.115Z,3280
2017-08-07T08:29:19.593Z,3300
2017-08-07T08:29:45.060Z,3292
2017-08-07T08:30:10.506Z,3252
2017-08-07T08:30:35.925Z,3252
2017-08-07T08:31:01.379Z,3196
2017-08-07T08:31:26.830Z,3212
2017-08-07T08:31:52.281Z,3212
2017-08-07T08:32:17.757Z,3244
2017-08-07T08:32:43.227Z,3248
2017-08-07T08:34:02.114Z,3284
2017-08-07T08:34:27.572Z,3284
2017-08-07T08:34:53.041Z,3244
2017-08-07T08:35:18.540Z,3288
2017-08-07T08:35:43.959Z,3272
2017-08-07T08:36:09.397Z,3280
2017-08-07T08:36:34.873Z,3232
2017-08-07T08:37:00.358Z,3212
2017-08-07T08:37:25.810Z,3212
2017-08-07T08:37:51.246Z,3212
2017-08-07T08:38:16.747Z,3224
2017-08-07T08:38:42.149Z,3228
2017-08-07T08:39:07.611Z,3252
2017-08-07T08:39:33.056Z,3236
2017-08-07T08:39:58.528Z,3224
2017-08-07T08:40:23.993Z,3264
2017-08-07T08:40:49.463Z,3272
2017-08-07T08:41:14.873Z,3284
2017-08-07T08:41:40.331Z,3284
2017-08-07T08:42:05.765Z,3288
2017-08-07T08:42:31.251Z,3300
2017-08-07T08:42:56.676Z,3304
2017-08-07T08:43:22.146Z,3264
2017-08-07T08:43:47.637Z,3212
2017-08-07T08:44:13.146Z,3180
2017-08-07T08:44:38.584Z,3124
2017-08-07T08:45:04.048Z,3144
2017-08-07T08:45:29.499Z,3148
2017-08-07T08:45:54.956Z,3168
2017-08-07T08:46:20.440Z,3200
2017-08-07T08:46:45.925Z,3196
2017-08-07T08:47:11.423Z,3188
2017-08-07T08:47:36.928Z,3160
2017-08-07T08:48:02.431Z,3120
2017-08-07T08:48:27.933Z,3076
2017-08-07T08:48:53.384Z,3068
2017-08-07T08:49:18.877Z,3096
2017-08-07T08:49:44.322Z,3088
2017-08-07T08:50:09.805Z,3088
2017-08-07T08:50:35.291Z,3096
2017-08-07T08:51:00.776Z,3104
2017-08-07T08:51:26.365Z,3100
2017-08-07T08:51:51.820Z,3096
2017-08-07T08:52:17.340Z,3100
2017-08-07T08:52:42.814Z,3104
2017-08-07T08:53:08.288Z,3100
2017-08-07T08:53:33.820Z,3100
2017-08-07T08:53:59.308Z,3100
2017-08-07T08:54:24.770Z,3084
2017-08-07T08:54:50.227Z,3028
2017-08-07T08:55:15.696Z,2936
2017-08-07T08:55:41.161Z,2948
2017-08-07T08:56:06.627Z,2960
2017-08-07T08:56:32.180Z,2856
2017-08-07T08:56:57.693Z,2836
2017-08-07T08:57:23.133Z,2980
2017-08-07T08:57:48.609Z,3012
2017-08-07T08:58:14.081Z,3028
2017-08-07T08:58:39.602Z,3044
2017-08-07T08:59:05.110Z,3068
2017-08-07T08:59:30.711Z,3080
2017-08-07T08:59:56.258Z,2988
2017-08-07T09:00:21.728Z,3072
2017-08-07T09:00:47.268Z,3116
2017-08-07T09:01:12.722Z,3116
2017-08-07T09:01:38.259Z,3116
2017-08-07T09:02:03.723Z,3092
2017-08-07T09:02:29.198Z,3112
2017-08-07T09:02:54.684Z,3140
2017-08-07T09:03:20.156Z,3156
2017-08-07T09:03:45.674Z,3168
2017-08-07T09:04:11.151Z,3176
2017-08-07T09:04:36.613Z,3176
2017-08-07T09:05:02.083Z,3180
2017-08-07T09:05:27.590Z,3192
2017-08-07T09:05:53.058Z,3208
2017-08-07T09:06:18.545Z,3228
2017-08-07T09:06:44.037Z,3240
2017-08-07T09:07:09.529Z,3252
2017-08-07T09:07:34.975Z,3268
2017-08-07T09:08:00.486Z,3284
2017-08-07T09:08:25.931Z,3288
2017-08-07T09:08:51.398Z,3296
2017-08-07T09:09:16.884Z,3308
2017-08-07T09:09:42.391Z,3308
2017-08-07T09:10:07.855Z,3288
2017-08-07T09:10:33.361Z,3276
2017-08-07T09:10:58.947Z,3244
2017-08-07T09:11:24.409Z,3236
2017-08-07T09:11:49.957Z,3220
2017-08-07T09:12:15.423Z,3276
2017-08-07T09:12:40.972Z,3272
2017-08-07T09:13:06.434Z,3276
2017-08-07T09:13:31.899Z,3296
2017-08-07T09:13:57.389Z,3296
2017-08-07T09:14:22.974Z,3296
2017-08-07T09:14:48.442Z,3320
2017-08-07T09:15:13.919Z,3332
2017-08-07T09:15:39.459Z,3348
2017-08-07T09:16:04.956Z,3368
2017-08-07T09:16:30.453Z,3368
2017-08-07T09:16:55.963Z,3392
2017-08-07T09:17:21.448Z,3372
2017-08-07T09:17:46.932Z,3352
2017-08-07T09:18:12.390Z,3352
2017-08-07T09:18:37.876Z,3332
2017-08-07T09:19:03.367Z,3344
2017-08-07T09:19:28.778Z,3372
2017-08-07T09:19:54.243Z,3388
2017-08-07T09:20:19.721Z,3416
2017-08-07T09:20:45.254Z,3404
2017-08-07T09:21:10.731Z,3408
2017-08-07T09:21:36.213Z,3392
2017-08-07T09:22:01.647Z,3388
2017-08-07T09:22:27.110Z,3368
2017-08-07T09:22:52.562Z,3352
2017-08-07T09:23:18.076Z,3352
2017-08-07T09:23:43.568Z,3332
2017-08-07T09:24:09.063Z,3324
2017-08-07T09:24:34.508Z,3328
2017-08-07T09:25:00.045Z,3332
2017-08-07T09:25:25.531Z,3312
2017-08-07T09:25:51.041Z,3268
2017-08-07T09:26:16.509Z,3292
2017-08-07T09:26:41.972Z,3300
2017-08-07T09:27:07.483Z,3308
2017-08-07T09:27:32.967Z,3332
2017-08-07T09:27:58.470Z,3332
2017-08-07T09:28:23.968Z,3332
2017-08-07T09:28:49.403Z,3356
2017-08-07T09:29:14.860Z,3360
2017-08-07T09:29:40.325Z,3384
2017-08-07T09:30:05.802Z,3392
2017-08-07T09:30:31.288Z,3400
2017-08-07T09:30:56.788Z,3372
2017-08-07T09:31:22.289Z,3332
2017-08-07T09:31:47.783Z,3308
2017-08-07T09:32:13.230Z,3292
2017-08-07T09:32:38.742Z,3268
2017-08-07T09:33:04.227Z,3260
2017-08-07T09:34:18.004Z,3244
2017-08-07T09:34:43.525Z,3208
2017-08-07T09:35:08.993Z,3200
2017-08-07T09:35:34.479Z,3184
2017-08-07T09:35:59.936Z,3192
2017-08-07T09:36:25.405Z,3204
2017-08-07T09:36:50.904Z,3216
2017-08-07T09:37:16.383Z,3200
2017-08-07T09:37:41.855Z,3192
2017-08-07T09:38:07.412Z,3204
2017-08-07T09:38:32.863Z,3216
2017-08-07T09:38:58.358Z,3236
2017-08-07T09:39:23.854Z,3224
2017-08-07T09:39:49.341Z,3276
2017-08-07T09:40:14.817Z,3316
2017-08-07T09:40:40.287Z,3372
2017-08-07T09:41:05.763Z,3408
2017-08-07T09:42:24.660Z,3612
2017-08-07T09:42:50.122Z,3588
2017-08-07T09:43:15.573Z,3652
2017-08-07T09:43:41.053Z,3660
2017-08-07T09:44:06.546Z,3668
2017-08-07T09:44:32.011Z,3708
2017-08-07T09:44:57.515Z,3768
2017-08-07T09:45:23.074Z,3820
2017-08-07T09:45:48.525Z,3984
2017-08-07T09:46:14.041Z,4156
2017-08-07T09:46:39.510Z,4140
2017-08-07T09:47:05.002Z,4200
2017-08-07T09:47:30.512Z,4296
2017-08-07T09:47:56.000Z,4488
2017-08-07T09:48:21.575Z,4444
2017-08-07T09:48:47.119Z,4200
2017-08-07T09:49:12.585Z,4436
2017-08-07T09:49:38.048Z,4536
2017-08-07T09:50:03.490Z,4524
2017-08-07T09:50:28.920Z,5252
2017-08-07T09:50:54.391Z,5084
2017-08-07T09:51:19.884Z,4132
2017-08-07T09:51:45.375Z,4036
2017-08-07T09:52:10.811Z,3712
2017-08-07T09:52:36.311Z,3576
2017-08-07T09:53:01.787Z,3520
2017-08-07T09:53:27.295Z,3484
2017-08-07T09:53:52.748Z,4092
2017-08-07T09:54:18.229Z,4032
2017-08-07T09:54:43.697Z,3376
2017-08-07T09:55:09.140Z,3356
2017-08-07T09:55:34.619Z,3320
2017-08-07T09:56:00.086Z,3912
2017-08-07T09:56:25.571Z,3952
2017-08-07T09:56:51.056Z,4012
2017-08-07T09:57:16.532Z,4008
2017-08-07T09:57:42.006Z,3960
2017-08-07T09:58:07.486Z,3888
2017-08-07T09:58:32.964Z,3872
2017-08-07T09:58:58.432Z,3632
2017-08-07T09:59:23.912Z,3236
2017-08-07T09:59:49.408Z,3536
2017-08-07T10:00:14.861Z,3760
2017-08-07T10:00:40.359Z,3720
2017-08-07T10:01:05.830Z,3780
2017-08-07T10:01:31.332Z,3904
2017-08-07T10:01:56.853Z,4260
2017-08-07T10:02:22.276Z,4132
2017-08-07T10:02:47.771Z,3764
2017-08-07T10:03:13.245Z,3768
2017-08-07T10:03:38.709Z,3732
2017-08-07T10:04:04.175Z,3700
2017-08-07T10:04:29.641Z,4348
2017-08-07T10:04:55.134Z,4264
2017-08-07T10:05:20.576Z,4196
2017-08-07T10:05:46.041Z,4108
2017-08-07T10:06:11.529Z,4064
2017-08-07T10:06:37.055Z,3984
2017-08-07T10:07:02.529Z,3928
2017-08-07T10:07:27.962Z,3892
2017-08-07T10:07:53.435Z,3832
2017-08-07T10:08:18.909Z,3792
2017-08-07T10:08:44.387Z,3764
2017-08-07T10:09:09.900Z,3752
2017-08-07T10:09:35.339Z,3688
2017-08-07T10:10:00.801Z,3676
2017-08-07T10:10:26.316Z,3652
2017-08-07T10:10:51.809Z,3664
2017-08-07T10:11:17.245Z,3644
2017-08-07T10:11:42.691Z,3556
2017-08-07T10:12:08.155Z,3532
2017-08-07T10:12:33.627Z,3460
2017-08-07T10:12:59.088Z,3424
2017-08-07T10:13:24.547Z,3340
2017-08-07T10:13:50.037Z,3432
2017-08-07T10:14:15.502Z,3516
2017-08-07T10:14:40.954Z,3332
2017-08-07T10:15:06.441Z,3508
2017-08-07T10:15:31.878Z,2908
2017-08-07T10:15:57.391Z,2876
2017-08-07T10:16:22.871Z,2900
2017-08-07T10:16:48.375Z,3064
2017-08-07T10:17:13.875Z,3320
2017-08-07T10:17:39.286Z,3832
2017-08-07T10:18:04.826Z,4360
2017-08-07T10:18:30.286Z,4912
2017-08-07T10:18:55.737Z,5380
2017-08-07T10:19:21.206Z,6108
2017-08-07T10:19:46.673Z,6552
2017-08-07T10:20:12.130Z,6904
2017-08-07T10:20:37.585Z,7180
2017-08-07T10:21:03.054Z,7348
2017-08-07T10:21:28.532Z,7476
2017-08-07T10:21:53.994Z,7584
2017-08-07T10:22:19.432Z,7676
2017-08-07T10:22:44.919Z,7708
2017-08-07T10:23:10.364Z,7720
2017-08-07T10:23:35.838Z,7612
2017-08-07T10:24:01.308Z,7384
2017-08-07T10:24:26.786Z,7172
2017-08-07T10:24:52.299Z,7020
2017-08-07T10:25:17.724Z,7108
2017-08-07T10:25:43.180Z,7156
2017-08-07T10:26:08.643Z,7352
2017-08-07T10:26:34.111Z,7452
2017-08-07T10:26:59.587Z,7308
2017-08-07T10:27:25.033Z,7096
2017-08-07T10:27:50.503Z,7064
2017-08-07T10:28:15.966Z,6952
2017-08-07T10:28:41.464Z,6808
2017-08-07T10:29:06.915Z,6700
2017-08-07T10:29:32.419Z,6544
2017-08-07T10:29:57.931Z,6364
2017-08-07T10:30:23.365Z,5972
2017-08-07T10:30:48.860Z,5676
2017-08-07T10:31:14.338Z,5308
2017-08-07T10:31:39.780Z,4964
2017-08-07T10:32:05.242Z,4636
2017-08-07T10:32:30.689Z,4344
2017-08-07T10:32:56.170Z,4092
2017-08-07T10:33:21.654Z,3864
2017-08-07T10:33:47.147Z,3708
2017-08-07T10:34:12.618Z,3628
2017-08-07T10:34:38.090Z,3528
2017-08-07T10:35:03.594Z,3480
2017-08-07T10:35:29.047Z,3064
2017-08-07T10:35:54.538Z,2936
2017-08-07T10:36:20.059Z,2884
2017-08-07T10:36:45.527Z,2796
2017-08-07T10:37:11.017Z,2756
2017-08-07T10:37:36.528Z,2728
2017-08-07T10:38:01.953Z,3100
2017-08-07T10:38:27.437Z,3204
2017-08-07T10:38:52.949Z,3172
2017-08-07T10:39:18.461Z,3120
2017-08-07T10:39:43.973Z,3160
2017-08-07T10:40:09.450Z,3224
2017-08-07T10:40:34.926Z,3280
2017-08-07T10:41:00.464Z,3268
2017-08-07T10:41:25.844Z,3220
2017-08-07T10:41:51.340Z,3208
2017-08-07T10:42:16.817Z,3220
2017-08-07T10:42:42.335Z,3204
2017-08-07T10:43:07.796Z,3200
2017-08-07T10:43:33.294Z,3256
2017-08-07T10:43:58.791Z,3304
2017-08-07T10:44:24.278Z,3384
2017-08-07T10:44:49.732Z,3400
2017-08-07T10:45:15.285Z,3400
2017-08-07T10:45:40.810Z,3440
2017-08-07T10:46:06.421Z,3420
2017-08-07T10:46:31.809Z,3404
2017-08-07T10:46:57.368Z,3412
2017-08-07T10:47:22.708Z,3384
2017-08-07T10:47:48.180Z,3388
2017-08-07T10:48:13.655Z,3200
2017-08-07T10:48:39.102Z,3328
2017-08-07T10:49:04.559Z,3340
2017-08-07T10:49:30.044Z,3176
2017-08-07T10:49:55.592Z,3348
2017-08-07T10:50:21.083Z,3412
2017-08-07T10:50:46.593Z,3148
2017-08-07T10:51:12.077Z,3224
2017-08-07T10:51:37.579Z,3224
2017-08-07T10:52:03.033Z,3172
2017-08-07T10:52:28.562Z,3168
2017-08-07T10:52:53.994Z,3188
2017-08-07T10:53:19.451Z,3196
2017-08-07T10:53:44.914Z,3248
2017-08-07T10:54:10.376Z,3572
2017-08-07T10:54:35.855Z,3736
2017-08-07T10:55:01.346Z,3780
2017-08-07T10:55:26.805Z,3808
2017-08-07T10:55:52.249Z,3796
2017-08-07T10:56:17.702Z,3808
2017-08-07T10:56:43.265Z,3616
2017-08-07T10:57:08.767Z,3508
2017-08-07T10:57:34.233Z,3348
2017-08-07T10:57:59.700Z,3440
2017-08-07T10:58:25.199Z,3484
2017-08-07T10:58:50.661Z,3568
2017-08-07T10:59:16.160Z,3672
2017-08-07T10:59:41.645Z,3824
2017-08-07T11:00:07.099Z,4212
2017-08-07T11:00:32.601Z,4656
2017-08-07T11:00:58.093Z,5176
2017-08-07T11:01:23.575Z,5416
2017-08-07T11:01:49.062Z,5400
2017-08-07T11:02:14.550Z,5164
2017-08-07T11:02:40.012Z,4964
2017-08-07T11:03:05.475Z,4784
2017-08-07T11:03:30.945Z,4588
2017-08-07T11:03:56.442Z,4384
2017-08-07T11:04:21.991Z,4220
2017-08-07T11:04:47.486Z,4084
2017-08-07T11:05:12.996Z,3972
2017-08-07T11:05:38.518Z,3860
2017-08-07T11:06:04.014Z,3796
2017-08-07T11:06:29.485Z,3732
2017-08-07T11:06:55.005Z,3692
2017-08-07T11:07:20.491Z,3648
2017-08-07T11:07:46.038Z,3620
2017-08-07T11:08:11.500Z,3600
2017-08-07T11:08:36.974Z,3580
2017-08-07T11:09:02.462Z,3596
2017-08-07T11:09:27.988Z,3520
2017-08-07T11:09:53.430Z,3536
2017-08-07T11:10:18.894Z,3580
2017-08-07T11:10:44.368Z,3580
2017-08-07T11:11:09.856Z,3584
2017-08-07T11:11:35.303Z,3524
2017-08-07T11:12:00.807Z,3324
2017-08-07T11:12:26.285Z,3160
2017-08-07T11:12:51.801Z,3252
2017-08-07T11:13:17.244Z,3652
2017-08-07T11:13:42.749Z,3596
2017-08-07T11:14:08.188Z,3668
2017-08-07T11:14:33.677Z,3948
2017-08-07T11:14:59.167Z,4092